createdAt,value
2018-08-18T00:01:56.712Z,15.20
2018-08-18T00:07:59.993Z,15.10
2018-08-18T00:14:03.517Z,15.10
2018-08-18T00:20:11.773Z,15.10
2018-08-18T00:26:15.049Z,14.90
2018-08-18T00:32:18.921Z,14.80
2018-08-18T00:38:23.066Z,14.70
2018-08-18T00:44:26.425Z,14.60
2018-08-18T00:51:45.226Z,14.70
2018-08-18T00:57:48.661Z,14.70
2018-08-18T01:03:55.986Z,14.60
2018-08-18T01:09:59.984Z,14.60
2018-08-18T01:16:03.291Z,14.50
2018-08-18T01:22:09.253Z,14.50
2018-08-18T01:28:12.823Z,14.40
2018-08-18T01:34:16.140Z,14.40
2018-08-18T01:40:19.949Z,14.30
2018-08-18T01:46:23.396Z,14.20
2018-08-18T01:52:27.149Z,14.20
2018-08-18T01:58:30.849Z,14.20
2018-08-18T02:04:34.265Z,14.20
2018-08-18T02:10:37.711Z,14.10
2018-08-18T02:16:41.175Z,14.00
2018-08-18T02:22:44.798Z,14.00
2018-08-18T02:28:48.328Z,14.00
2018-08-18T02:34:51.898Z,14.00
2018-08-18T02:40:55.437Z,14.00
2018-08-18T02:46:59.082Z,13.90
2018-08-18T02:53:23.314Z,13.90
2018-08-18T02:59:26.777Z,13.90
2018-08-18T03:05:30.221Z,13.80
2018-08-18T03:11:42.039Z,13.70
2018-08-18T03:17:45.518Z,13.60
2018-08-18T03:24:09.410Z,13.60
2018-08-18T03:30:13.318Z,13.50
2018-08-18T03:36:30.183Z,13.40
2018-08-18T03:42:43.323Z,13.30
2018-08-18T03:48:47.247Z,13.20
2018-08-18T03:54:50.766Z,13.30
2018-08-18T04:00:54.348Z,13.30
2018-08-18T04:06:59.324Z,13.30
2018-08-18T04:13:02.875Z,13.30
2018-08-18T04:19:06.316Z,13.20
2018-08-18T04:25:09.984Z,13.10
2018-08-18T04:31:17.047Z,13.10
2018-08-18T04:37:20.546Z,13.10
2018-08-18T04:43:24.137Z,13.10
2018-08-18T04:49:27.597Z,13.10
2018-08-18T04:55:31.054Z,13.20
2018-08-18T05:01:34.829Z,13.30
2018-08-18T05:07:42.821Z,13.30
2018-08-18T05:13:46.335Z,13.40
2018-08-18T05:19:59.651Z,13.40
2018-08-18T05:26:03.288Z,13.50
2018-08-18T05:32:08.005Z,13.60
2018-08-18T05:38:11.503Z,13.70
2018-08-18T05:44:15.610Z,13.80
2018-08-18T05:50:20.502Z,13.90
2018-08-18T05:56:25.186Z,14.10
2018-08-18T06:02:28.635Z,14.30
2018-08-18T06:08:32.394Z,14.40
2018-08-18T06:14:41.430Z,14.60
2018-08-18T06:20:45.032Z,14.90
2018-08-18T06:26:48.491Z,15.20
2018-08-18T06:32:51.921Z,15.60
2018-08-18T06:38:55.497Z,15.90
2018-08-18T06:44:58.915Z,16.10
2018-08-18T06:51:03.121Z,16.40
2018-08-18T06:57:06.664Z,16.60
2018-08-18T07:03:27.412Z,16.80
2018-08-18T07:09:31.954Z,17.00
2018-08-18T07:15:36.734Z,17.20
2018-08-18T07:21:40.366Z,17.30
2018-08-18T07:27:44.335Z,17.50
2018-08-18T07:33:48.010Z,17.70
2018-08-18T07:39:52.130Z,17.80
2018-08-18T07:45:57.134Z,18.10
2018-08-18T07:52:00.464Z,18.20
2018-08-18T07:58:08.722Z,18.40
2018-08-18T08:04:12.118Z,18.50
2018-08-18T08:10:15.854Z,18.60
2018-08-18T08:16:19.110Z,18.70
2018-08-18T08:22:23.487Z,19.00
2018-08-18T08:28:27.114Z,19.10
2018-08-18T08:34:35.034Z,19.30
2018-08-18T08:40:39.121Z,19.40
2018-08-18T08:46:59.108Z,19.60
2018-08-18T08:53:02.884Z,19.80
2018-08-18T08:59:06.576Z,20.10
2018-08-18T09:05:10.248Z,20.10
2018-08-18T09:11:14.378Z,20.20
2018-08-18T09:17:17.945Z,20.30
2018-08-18T09:23:22.040Z,20.40
2018-08-18T09:29:26.834Z,20.60
2018-08-18T09:36:03.042Z,20.80
2018-08-18T09:42:09.403Z,20.90
2018-08-18T09:48:13.062Z,21.10
2018-08-18T09:54:16.574Z,21.30
2018-08-18T10:00:24.902Z,21.40
2018-08-18T10:06:28.699Z,21.50
2018-08-18T10:12:32.557Z,21.70
2018-08-18T10:18:40.997Z,21.80
2018-08-18T10:24:44.516Z,22.10
2018-08-18T10:30:48.352Z,22.40
2018-08-18T10:36:58.454Z,22.50
2018-08-18T10:43:02.226Z,22.70
2018-08-18T10:49:05.997Z,22.90
2018-08-18T10:55:10.820Z,23.00
2018-08-18T11:01:14.586Z,23.20
2018-08-18T11:07:18.612Z,23.40
2018-08-18T11:13:22.447Z,23.40
2018-08-18T11:19:26.032Z,23.50
2018-08-18T11:25:33.810Z,23.40
2018-08-18T11:31:37.179Z,23.40
2018-08-18T11:37:57.802Z,23.50
2018-08-18T11:44:01.257Z,23.20
2018-08-18T11:50:05.049Z,23.30
2018-08-18T11:56:08.410Z,23.10
2018-08-18T12:02:11.899Z,23.50
2018-08-18T12:08:17.469Z,23.80
2018-08-18T12:14:21.005Z,23.90
2018-08-18T12:20:24.847Z,24.10
2018-08-18T12:26:28.227Z,24.10
2018-08-18T12:32:31.568Z,24.40
2018-08-18T12:38:35.263Z,24.50
2018-08-18T12:44:38.580Z,24.70
2018-08-18T12:50:48.620Z,24.70
2018-08-18T12:56:51.976Z,24.80
2018-08-18T13:02:55.951Z,24.90
2018-08-18T13:08:59.310Z,25.00
2018-08-18T13:15:02.718Z,25.20
2018-08-18T13:21:06.467Z,25.20
2018-08-18T13:27:09.794Z,25.30
2018-08-18T13:33:13.306Z,25.40
2018-08-18T13:39:17.846Z,25.40
2018-08-18T13:45:36.018Z,25.50
2018-08-18T13:51:39.433Z,25.80
2018-08-18T13:57:42.966Z,25.90
2018-08-18T14:03:46.287Z,26.00
2018-08-18T14:10:07.097Z,26.10
2018-08-18T14:16:10.693Z,26.00
2018-08-18T14:22:17.705Z,26.00
2018-08-18T14:28:21.305Z,26.20
2018-08-18T14:34:25.020Z,26.40
2018-08-18T14:40:28.509Z,26.60
2018-08-18T14:46:32.343Z,26.90
2018-08-18T14:52:35.553Z,27.20
2018-08-18T14:58:42.612Z,27.50
2018-08-18T15:04:45.879Z,27.80
2018-08-18T15:10:49.266Z,27.90
2018-08-18T15:16:52.736Z,27.60
2018-08-18T15:22:56.432Z,27.60
2018-08-18T15:28:59.738Z,27.90
2018-08-18T15:35:03.154Z,28.00
2018-08-18T15:41:06.530Z,28.20
2018-08-18T15:47:10.068Z,28.30
2018-08-18T15:53:13.372Z,28.60
2018-08-18T15:59:16.701Z,28.80
2018-08-18T16:05:20.216Z,28.60
2018-08-18T16:11:23.643Z,28.80
2018-08-18T16:17:26.925Z,29.10
2018-08-18T16:23:30.213Z,28.80
2018-08-18T16:29:33.915Z,28.20
2018-08-18T16:35:39.536Z,27.60
2018-08-18T16:41:42.850Z,27.00
2018-08-18T16:47:51.562Z,26.70
2018-08-18T16:53:55.801Z,26.50
2018-08-18T16:59:59.074Z,26.30
2018-08-18T17:06:03.771Z,26.00
2018-08-18T17:12:21.106Z,25.60
2018-08-18T17:18:24.730Z,25.50
2018-08-18T17:24:28.145Z,25.40
2018-08-18T17:30:32.224Z,25.20
2018-08-18T17:36:35.598Z,24.90
2018-08-18T17:42:40.772Z,24.90
2018-08-18T17:48:49.557Z,24.50
2018-08-18T17:55:09.846Z,24.20
2018-08-18T18:01:13.244Z,24.00
2018-08-18T18:07:16.664Z,23.80
2018-08-18T18:13:26.904Z,23.70
2018-08-18T18:19:30.341Z,23.50
2018-08-18T18:25:33.791Z,23.40
2018-08-18T18:31:37.248Z,23.30
2018-08-18T18:37:41.350Z,23.20
2018-08-18T18:43:54.958Z,23.00
2018-08-18T18:49:58.334Z,22.90
2018-08-18T18:56:02.830Z,22.70
2018-08-18T19:02:09.260Z,22.60
2018-08-18T19:08:18.562Z,22.50
2018-08-18T19:14:22.625Z,22.40
2018-08-18T19:20:28.409Z,22.30
2018-08-18T19:26:46.851Z,22.10
2018-08-18T19:32:51.498Z,22.00
2018-08-18T19:39:00.229Z,21.90
2018-08-18T19:45:06.437Z,21.80
2018-08-18T19:51:11.927Z,21.70
2018-08-18T19:58:43.231Z,21.60
2018-08-18T20:04:47.054Z,21.60
2018-08-18T20:10:56.285Z,21.50
2018-08-18T20:16:59.893Z,21.40
2018-08-18T20:23:03.562Z,21.20
2018-08-18T20:29:06.959Z,21.00
2018-08-18T20:35:10.449Z,20.70
2018-08-18T20:41:14.810Z,20.50
2018-08-18T20:47:18.379Z,20.30
2018-08-18T20:53:21.780Z,20.00
2018-08-18T20:59:25.965Z,19.70
2018-08-18T21:05:30.085Z,19.60
2018-08-18T21:11:33.561Z,19.50
2018-08-18T21:17:37.162Z,19.40
2018-08-18T21:23:40.939Z,19.30
2018-08-18T21:29:44.727Z,19.10
2018-08-18T21:35:49.314Z,19.10
2018-08-18T21:41:52.935Z,19.00
2018-08-18T21:47:56.294Z,18.80
2018-08-18T21:54:00.176Z,18.80
2018-08-18T22:00:04.177Z,18.70
2018-08-18T22:06:07.955Z,18.50
2018-08-18T22:12:11.745Z,18.40
2018-08-18T22:18:15.539Z,18.30
2018-08-18T22:24:19.436Z,18.20
2018-08-18T22:30:26.731Z,18.10
2018-08-18T22:36:32.016Z,18.10
2018-08-18T22:42:35.838Z,18.00
2018-08-18T22:48:39.305Z,17.90
2018-08-18T22:54:42.898Z,17.90
2018-08-18T23:00:49.622Z,17.80
2018-08-18T23:06:54.136Z,17.70
2018-08-18T23:12:57.705Z,17.50
2018-08-18T23:19:01.175Z,17.50
2018-08-18T23:25:04.895Z,17.50
2018-08-18T23:31:08.710Z,17.40
2018-08-18T23:37:17.461Z,17.40
2018-08-18T23:43:20.823Z,17.30
2018-08-18T23:49:24.679Z,17.20
2018-08-18T23:55:29.306Z,17.00
